createdAt,value
2023-05-02T00:00:11.366Z,27.81
2023-05-02T00:01:11.339Z,27.80
2023-05-02T00:02:11.433Z,27.78
2023-05-02T00:03:11.448Z,27.80
2023-05-02T00:04:11.479Z,27.80
2023-05-02T00:05:11.314Z,27.78
2023-05-02T00:06:11.362Z,27.78
2023-05-02T00:07:11.303Z,27.78
2023-05-02T00:08:11.280Z,27.78
2023-05-02T00:09:11.295Z,27.80
2023-05-02T00:10:11.286Z,27.80
2023-05-02T00:11:11.295Z,27.78
2023-05-02T00:12:11.296Z,27.78
2023-05-02T00:13:11.250Z,27.78
2023-05-02T00:14:11.291Z,27.80
2023-05-02T00:15:11.220Z,27.78
2023-05-02T00:16:11.330Z,27.77
2023-05-02T00:17:11.379Z,27.78
2023-05-02T00:18:11.273Z,27.78
2023-05-02T00:19:11.226Z,27.75
2023-05-02T00:20:11.210Z,27.80
2023-05-02T00:21:11.238Z,27.77
2023-05-02T00:22:11.176Z,27.77
2023-05-02T00:23:11.170Z,27.77
2023-05-02T00:24:11.202Z,27.77
2023-05-02T00:25:11.165Z,27.77
2023-05-02T00:26:11.168Z,27.78
2023-05-02T00:27:11.178Z,27.75
2023-05-02T00:28:11.159Z,27.77
2023-05-02T00:29:11.196Z,27.77
2023-05-02T00:30:11.171Z,27.77
2023-05-02T00:31:11.202Z,27.77
2023-05-02T00:32:11.281Z,27.75
2023-05-02T00:33:11.298Z,27.77
2023-05-02T00:34:11.173Z,27.74
2023-05-02T00:35:11.176Z,27.72
2023-05-02T00:36:11.165Z,27.75
2023-05-02T00:37:11.161Z,27.77
2023-05-02T00:38:11.148Z,27.74
2023-05-02T00:39:11.155Z,27.75
2023-05-02T00:40:11.151Z,27.75
2023-05-02T00:41:11.164Z,27.72
2023-05-02T00:42:11.225Z,27.74
2023-05-02T00:43:11.145Z,27.75
2023-05-02T00:44:11.169Z,27.75
2023-05-02T00:45:11.174Z,27.74
2023-05-02T00:46:11.213Z,27.74
2023-05-02T00:47:11.196Z,27.74
2023-05-02T00:48:11.296Z,27.74
2023-05-02T00:49:11.164Z,27.71
2023-05-02T00:50:11.162Z,27.75
2023-05-02T00:51:11.166Z,27.72
2023-05-02T00:52:11.195Z,27.72
2023-05-02T00:53:11.207Z,27.74
2023-05-02T00:54:11.157Z,27.74
2023-05-02T00:55:11.161Z,27.74
2023-05-02T00:56:11.178Z,27.72
2023-05-02T00:57:11.151Z,27.72
2023-05-02T00:58:11.150Z,27.72
2023-05-02T00:59:11.162Z,27.72
2023-05-02T01:00:11.171Z,27.74
2023-05-02T01:01:11.204Z,27.74
2023-05-02T01:02:11.266Z,27.72
2023-05-02T01:03:11.229Z,27.70
2023-05-02T01:04:11.256Z,27.71
2023-05-02T01:05:11.176Z,27.74
2023-05-02T01:06:11.173Z,27.71
2023-05-02T01:07:11.166Z,27.74
2023-05-02T01:08:11.167Z,27.72
2023-05-02T01:09:11.162Z,27.71
2023-05-02T01:10:11.134Z,27.72
2023-05-02T01:11:11.142Z,27.71
2023-05-02T01:12:11.100Z,27.71
2023-05-02T01:13:11.154Z,27.70
2023-05-02T01:14:11.122Z,27.72
2023-05-02T01:15:11.133Z,27.71
2023-05-02T01:16:11.213Z,27.70
2023-05-02T01:17:11.169Z,27.70
2023-05-02T01:18:11.216Z,27.70
2023-05-02T01:19:11.117Z,27.70
2023-05-02T01:20:11.202Z,27.72
2023-05-02T01:21:11.127Z,27.70
2023-05-02T01:22:11.160Z,27.68
2023-05-02T01:23:11.134Z,27.71
2023-05-02T01:24:11.118Z,27.72
2023-05-02T01:25:11.111Z,27.68
2023-05-02T01:26:11.128Z,27.68
2023-05-02T01:27:11.139Z,27.71
2023-05-02T01:28:11.152Z,27.71
2023-05-02T01:29:11.159Z,27.71
2023-05-02T01:30:11.165Z,27.71
2023-05-02T01:31:11.206Z,27.71
2023-05-02T01:32:11.144Z,27.70
2023-05-02T01:33:11.146Z,27.68
2023-05-02T01:34:11.138Z,27.71
2023-05-02T01:35:11.169Z,27.71
2023-05-02T01:36:11.150Z,27.68
2023-05-02T01:37:11.169Z,27.70
2023-05-02T01:38:11.228Z,27.70
2023-05-02T01:39:11.120Z,27.68
2023-05-02T01:40:11.123Z,27.70
2023-05-02T01:41:11.169Z,27.67
2023-05-02T01:42:11.171Z,27.70
2023-05-02T01:43:11.182Z,27.70
2023-05-02T01:44:11.163Z,27.71
2023-05-02T01:45:11.207Z,27.67
2023-05-02T01:46:11.253Z,27.68
2023-05-02T01:47:11.297Z,27.70
2023-05-02T01:48:11.285Z,27.68
2023-05-02T01:49:11.206Z,27.67
2023-05-02T01:50:11.214Z,27.70
2023-05-02T01:51:11.232Z,27.68
2023-05-02T01:52:11.234Z,27.65
2023-05-02T01:53:11.221Z,27.68
2023-05-02T01:54:11.252Z,27.68
2023-05-02T01:55:11.207Z,27.67
2023-05-02T01:56:11.244Z,27.68
2023-05-02T01:57:11.282Z,27.65
2023-05-02T01:58:11.248Z,27.68
2023-05-02T01:59:11.257Z,27.68
2023-05-02T02:00:11.280Z,27.65
2023-05-02T02:01:11.302Z,27.67
2023-05-02T02:02:11.281Z,27.65
2023-05-02T02:03:11.314Z,27.68
2023-05-02T02:04:11.455Z,27.67
2023-05-02T02:05:11.310Z,27.67
2023-05-02T02:06:11.359Z,27.68
2023-05-02T02:07:11.348Z,27.68
2023-05-02T02:08:11.337Z,27.67
2023-05-02T02:09:11.367Z,27.67
2023-05-02T02:10:11.337Z,27.65
2023-05-02T02:11:11.401Z,27.65
2023-05-02T02:12:11.369Z,27.65
2023-05-02T02:13:11.412Z,27.68
2023-05-02T02:14:11.419Z,27.65
2023-05-02T02:15:11.410Z,27.64
2023-05-02T02:16:11.472Z,27.65
2023-05-02T02:17:11.441Z,27.65
2023-05-02T02:18:11.493Z,27.64
2023-05-02T02:19:11.459Z,27.68
2023-05-02T02:20:11.472Z,27.64
2023-05-02T02:21:11.472Z,27.65
2023-05-02T02:22:11.496Z,27.62
2023-05-02T02:23:11.534Z,27.62
2023-05-02T02:24:11.557Z,27.65
2023-05-02T02:25:11.547Z,27.65
2023-05-02T02:26:11.542Z,27.61
2023-05-02T02:27:11.558Z,27.64
2023-05-02T02:28:11.579Z,27.64
2023-05-02T02:29:11.604Z,27.67
2023-05-02T02:30:11.575Z,27.62
2023-05-02T02:31:11.647Z,27.65
2023-05-02T02:32:11.605Z,27.67
2023-05-02T02:33:11.655Z,27.65
2023-05-02T02:34:11.616Z,27.65
2023-05-02T02:35:11.634Z,27.64
2023-05-02T02:36:11.650Z,27.64
2023-05-02T02:37:11.653Z,27.64
2023-05-02T02:38:11.627Z,27.64
2023-05-02T02:39:11.655Z,27.65
2023-05-02T02:40:11.700Z,27.64
2023-05-02T02:41:11.677Z,27.62
2023-05-02T02:42:11.681Z,27.64
2023-05-02T02:43:11.717Z,27.64
2023-05-02T02:44:13.475Z,27.62
2023-05-02T02:45:11.742Z,27.65
2023-05-02T02:46:11.784Z,27.61
2023-05-02T02:47:11.726Z,27.65
2023-05-02T02:48:11.810Z,27.60
2023-05-02T02:49:11.767Z,27.64
2023-05-02T02:50:11.795Z,27.62
2023-05-02T02:51:11.797Z,27.61
2023-05-02T02:52:11.816Z,27.64
2023-05-02T02:53:11.816Z,27.64
2023-05-02T02:54:25.345Z,27.64
2023-05-02T02:55:12.826Z,27.62
2023-05-02T02:56:11.812Z,27.64
2023-05-02T02:57:11.814Z,27.62
2023-05-02T02:58:11.776Z,27.62
2023-05-02T02:59:11.791Z,27.61
2023-05-02T03:00:11.868Z,27.62
2023-05-02T03:01:11.777Z,27.64
2023-05-02T03:02:11.809Z,27.62
2023-05-02T03:03:11.850Z,27.61
2023-05-02T03:04:11.841Z,27.60
2023-05-02T03:05:11.735Z,27.64
2023-05-02T03:06:11.736Z,27.62
2023-05-02T03:07:11.755Z,27.62
2023-05-02T03:08:11.711Z,27.61
2023-05-02T03:09:11.720Z,27.61
2023-05-02T03:10:11.699Z,27.62
2023-05-02T03:11:11.698Z,27.62
2023-05-02T03:12:11.673Z,27.61
2023-05-02T03:13:11.685Z,27.60
2023-05-02T03:14:11.698Z,27.60
2023-05-02T03:15:11.701Z,27.61
2023-05-02T03:16:11.701Z,27.58
2023-05-02T03:17:11.654Z,27.61
2023-05-02T03:18:11.763Z,27.60
2023-05-02T03:19:11.661Z,27.61
2023-05-02T03:20:11.629Z,27.61
2023-05-02T03:21:11.631Z,27.60
2023-05-02T03:22:11.628Z,27.62
2023-05-02T03:23:11.668Z,27.60
2023-05-02T03:24:11.707Z,27.60
2023-05-02T03:25:11.663Z,27.60
2023-05-02T03:26:11.722Z,27.60
2023-05-02T03:27:11.688Z,27.61
2023-05-02T03:28:11.710Z,27.61
2023-05-02T03:29:11.745Z,27.60
2023-05-02T03:30:11.789Z,27.61
2023-05-02T03:31:11.779Z,27.60
2023-05-02T03:32:11.850Z,27.58
2023-05-02T03:33:11.872Z,27.61
2023-05-02T03:34:11.778Z,27.60
2023-05-02T03:35:11.940Z,27.58
2023-05-02T03:36:11.847Z,27.60
2023-05-02T03:37:11.851Z,27.58
2023-05-02T03:38:11.870Z,27.58
2023-05-02T03:39:11.862Z,27.60
2023-05-02T03:40:11.867Z,27.58
2023-05-02T03:41:11.933Z,27.60
2023-05-02T03:42:11.928Z,27.61
2023-05-02T03:43:11.939Z,27.58
2023-05-02T03:44:11.962Z,27.60
2023-05-02T03:45:11.949Z,27.61
2023-05-02T03:46:12.049Z,27.60
2023-05-02T03:47:12.003Z,27.60
2023-05-02T03:48:12.199Z,27.58
2023-05-02T03:49:12.040Z,27.58
2023-05-02T03:50:12.061Z,27.58
2023-05-02T03:51:12.028Z,27.61
2023-05-02T03:52:12.050Z,27.58
2023-05-02T03:53:12.095Z,27.58
2023-05-02T03:54:12.099Z,27.60
2023-05-02T03:55:12.096Z,27.57
2023-05-02T03:56:12.183Z,27.58
2023-05-02T03:57:12.111Z,27.60
2023-05-02T03:58:12.163Z,27.58
2023-05-02T03:59:12.185Z,27.58
2023-05-02T04:00:12.237Z,27.58
2023-05-02T04:01:12.216Z,27.58
2023-05-02T04:02:12.239Z,27.58
2023-05-02T04:03:12.319Z,27.60
2023-05-02T04:04:12.271Z,27.60
2023-05-02T04:05:12.258Z,27.60
2023-05-02T04:06:12.260Z,27.60
2023-05-02T04:07:12.273Z,27.60
2023-05-02T04:08:12.296Z,27.62
2023-05-02T04:09:12.326Z,27.62
2023-05-02T04:10:12.360Z,27.62
2023-05-02T04:11:12.343Z,27.61
2023-05-02T04:12:12.381Z,27.58
2023-05-02T04:13:12.445Z,27.58
2023-05-02T04:14:12.482Z,27.56
2023-05-02T04:15:12.524Z,27.56
2023-05-02T04:16:12.638Z,27.56
2023-05-02T04:17:12.714Z,27.54
2023-05-02T04:18:12.663Z,27.50
2023-05-02T04:19:12.683Z,27.50
2023-05-02T04:20:12.758Z,27.47
2023-05-02T04:21:12.795Z,27.46
2023-05-02T04:22:12.829Z,27.47
2023-05-02T04:23:12.890Z,27.44
2023-05-02T04:24:12.947Z,27.41
2023-05-02T04:25:13.004Z,27.43
2023-05-02T04:26:13.060Z,27.43
2023-05-02T04:27:15.154Z,27.39
2023-05-02T04:28:13.154Z,27.40
2023-05-02T04:29:13.198Z,27.40
2023-05-02T04:30:13.250Z,27.37
2023-05-02T04:31:13.418Z,27.39
2023-05-02T04:32:13.355Z,27.34
2023-05-02T04:33:13.509Z,27.39
2023-05-02T04:34:13.451Z,27.32
2023-05-02T04:35:13.516Z,27.36
2023-05-02T04:36:13.594Z,27.34
2023-05-02T04:37:13.628Z,27.36
2023-05-02T04:38:13.650Z,27.36
2023-05-02T04:39:13.707Z,27.33
2023-05-02T04:40:13.743Z,27.36
2023-05-02T04:41:13.828Z,27.34
2023-05-02T04:42:13.839Z,27.34
2023-05-02T04:43:13.882Z,27.34
2023-05-02T04:44:13.904Z,27.36
2023-05-02T04:45:13.951Z,27.36
2023-05-02T04:46:14.046Z,27.39
2023-05-02T04:47:14.029Z,27.37
2023-05-02T04:48:14.155Z,27.39
2023-05-02T04:49:14.104Z,27.40
2023-05-02T04:50:14.141Z,27.37
2023-05-02T04:51:16.806Z,27.41
2023-05-02T04:52:14.148Z,27.40
2023-05-02T04:53:14.152Z,27.43
2023-05-02T04:54:14.152Z,27.41
2023-05-02T04:55:14.187Z,27.40
2023-05-02T04:56:14.150Z,27.43
2023-05-02T04:57:14.091Z,27.43
2023-05-02T04:58:14.144Z,27.43
2023-05-02T04:59:14.176Z,27.44
2023-05-02T05:00:14.104Z,27.44
2023-05-02T05:01:14.121Z,27.46
2023-05-02T05:02:14.188Z,27.46
2023-05-02T05:03:14.193Z,27.46
2023-05-02T05:04:14.285Z,27.46
2023-05-02T05:05:14.110Z,27.49
2023-05-02T05:06:14.092Z,27.44
2023-05-02T05:07:14.137Z,27.47
2023-05-02T05:08:14.043Z,27.46
2023-05-02T05:09:14.054Z,27.47
2023-05-02T05:10:14.025Z,27.49
2023-05-02T05:11:14.072Z,27.49
2023-05-02T05:12:14.057Z,27.49
2023-05-02T05:13:14.132Z,27.49
2023-05-02T05:14:14.061Z,27.51
2023-05-02T05:15:13.980Z,27.50
2023-05-02T05:16:14.040Z,27.50
2023-05-02T05:17:13.993Z,27.49
2023-05-02T05:18:14.065Z,27.53
2023-05-02T05:19:13.983Z,27.51
2023-05-02T05:20:13.995Z,27.51
2023-05-02T05:21:14.000Z,27.54
2023-05-02T05:22:13.948Z,27.50
2023-05-02T05:23:13.951Z,27.53
2023-05-02T05:24:13.952Z,27.53
2023-05-02T05:25:13.921Z,27.53
2023-05-02T05:26:13.920Z,27.54
2023-05-02T05:27:13.931Z,27.51
2023-05-02T05:28:13.945Z,27.54
2023-05-02T05:29:13.921Z,27.56
2023-05-02T05:30:13.896Z,27.57
2023-05-02T05:31:16.603Z,27.53
2023-05-02T05:32:13.981Z,27.53
2023-05-02T05:33:14.015Z,27.56
2023-05-02T05:34:13.922Z,27.54
2023-05-02T05:35:13.899Z,27.54
2023-05-02T05:36:13.892Z,27.53
2023-05-02T05:37:13.861Z,27.51
2023-05-02T05:38:13.850Z,27.46
2023-05-02T05:39:13.860Z,27.36
2023-05-02T05:40:13.819Z,27.30
2023-05-02T05:41:13.827Z,27.22
2023-05-02T05:42:13.883Z,27.16
2023-05-02T05:43:13.794Z,27.07
2023-05-02T05:44:13.816Z,27.05
2023-05-02T05:45:13.801Z,27.01
2023-05-02T05:46:13.802Z,26.96
2023-05-02T05:47:13.823Z,26.91
2023-05-02T05:48:13.807Z,26.89
2023-05-02T05:49:13.769Z,26.85
2023-05-02T05:50:13.802Z,26.86
2023-05-02T05:51:13.797Z,26.82
2023-05-02T05:52:13.752Z,26.84
2023-05-02T05:53:13.741Z,26.78
2023-05-02T05:54:13.736Z,26.77
2023-05-02T05:55:13.764Z,26.78
2023-05-02T05:56:13.721Z,26.75
2023-05-02T05:57:13.729Z,26.77
2023-05-02T05:58:13.710Z,26.77
2023-05-02T05:59:13.748Z,26.75
2023-05-02T06:00:13.697Z,26.75
2023-05-02T06:01:13.687Z,26.77
2023-05-02T06:02:13.715Z,26.77
2023-05-02T06:03:13.796Z,26.78
2023-05-02T06:04:14.036Z,26.75
2023-05-02T06:05:13.732Z,26.73
2023-05-02T06:06:13.735Z,26.73
2023-05-02T06:07:13.685Z,26.73
2023-05-02T06:08:13.654Z,26.74
2023-05-02T06:09:13.671Z,26.74
2023-05-02T06:10:13.899Z,26.74
2023-05-02T06:11:13.622Z,26.65
2023-05-02T06:12:13.625Z,26.61
2023-05-02T06:13:13.633Z,26.67
2023-05-02T06:14:13.679Z,26.70
2023-05-02T06:15:13.567Z,26.73
2023-05-02T06:16:13.638Z,26.78
2023-05-02T06:17:13.608Z,26.78
2023-05-02T06:18:13.616Z,26.82
2023-05-02T06:19:13.579Z,26.86
2023-05-02T06:20:13.580Z,26.91
2023-05-02T06:21:13.594Z,26.96
2023-05-02T06:22:14.322Z,26.99
2023-05-02T06:23:13.549Z,27.01
2023-05-02T06:24:13.536Z,27.02
2023-05-02T06:25:13.511Z,27.02
2023-05-02T06:26:13.517Z,27.09
2023-05-02T06:27:13.565Z,27.13
2023-05-02T06:28:13.489Z,27.13
2023-05-02T06:29:13.546Z,27.15
2023-05-02T06:30:13.479Z,27.21
2023-05-02T06:31:13.565Z,27.23
2023-05-02T06:32:13.477Z,27.22
2023-05-02T06:33:13.521Z,27.26
2023-05-02T06:34:13.479Z,27.30
2023-05-02T06:35:14.365Z,27.32
2023-05-02T06:36:13.534Z,27.39
2023-05-02T06:37:13.969Z,27.39
2023-05-02T06:38:13.621Z,27.43
2023-05-02T06:39:13.727Z,27.43
2023-05-02T06:40:13.872Z,27.44
2023-05-02T06:41:15.279Z,27.44
2023-05-02T06:42:13.912Z,27.41
2023-05-02T06:43:13.892Z,27.40
2023-05-02T06:44:13.839Z,27.40
2023-05-02T06:45:13.793Z,27.40
2023-05-02T06:46:13.902Z,27.37
2023-05-02T06:47:13.965Z,27.36
2023-05-02T06:48:13.815Z,27.33
2023-05-02T06:49:13.780Z,27.32
2023-05-02T06:50:13.743Z,27.26
2023-05-02T06:51:13.732Z,27.25
2023-05-02T06:52:13.741Z,27.19
2023-05-02T06:53:13.730Z,27.22
2023-05-02T06:54:13.748Z,27.22
2023-05-02T06:55:13.709Z,27.23
2023-05-02T06:56:14.059Z,27.23
2023-05-02T06:57:13.700Z,27.26
2023-05-02T06:58:13.699Z,27.26
2023-05-02T06:59:13.707Z,27.32
2023-05-02T07:00:13.704Z,27.32
2023-05-02T07:01:13.696Z,27.34
2023-05-02T07:02:13.653Z,27.37
2023-05-02T07:03:13.761Z,27.40
2023-05-02T07:04:13.794Z,27.44
2023-05-02T07:05:13.658Z,27.46
2023-05-02T07:06:13.733Z,27.47
2023-05-02T07:07:13.712Z,27.46
2023-05-02T07:08:13.640Z,27.51
2023-05-02T07:09:13.686Z,27.51
2023-05-02T07:10:13.877Z,27.53
2023-05-02T07:11:13.693Z,27.56
2023-05-02T07:12:13.637Z,27.54
2023-05-02T07:13:13.629Z,27.56
2023-05-02T07:14:13.587Z,27.57
2023-05-02T07:15:13.648Z,27.56
2023-05-02T07:16:13.890Z,27.57
2023-05-02T07:17:13.871Z,27.57
2023-05-02T07:18:13.912Z,27.56
2023-05-02T07:19:13.614Z,27.54
2023-05-02T07:20:13.610Z,27.53
2023-05-02T07:21:13.642Z,27.53
2023-05-02T07:22:13.542Z,27.51
2023-05-02T07:23:13.909Z,27.53
2023-05-02T07:24:13.923Z,27.56
2023-05-02T07:25:13.537Z,27.53
2023-05-02T07:26:13.519Z,27.56
2023-05-02T07:27:13.529Z,27.54
2023-05-02T07:28:13.948Z,27.50
2023-05-02T07:29:14.379Z,27.49
2023-05-02T07:30:13.931Z,27.44
2023-05-02T07:31:13.572Z,27.44
2023-05-02T07:32:13.946Z,27.46
2023-05-02T07:33:13.666Z,27.47
2023-05-02T07:34:13.716Z,27.47
2023-05-02T07:35:13.725Z,27.47
2023-05-02T07:36:13.736Z,27.50
2023-05-02T07:37:13.912Z,27.50
2023-05-02T07:38:13.779Z,27.53
2023-05-02T07:39:13.826Z,27.56
2023-05-02T07:40:13.872Z,27.57
2023-05-02T07:41:13.855Z,27.58
2023-05-02T07:42:14.406Z,27.60
2023-05-02T07:43:13.913Z,27.58
2023-05-02T07:44:13.947Z,27.61
2023-05-02T07:45:14.002Z,27.62
2023-05-02T07:46:14.014Z,27.64
2023-05-02T07:47:14.388Z,27.64
2023-05-02T07:48:14.122Z,27.67
2023-05-02T07:49:14.391Z,27.65
2023-05-02T07:50:14.045Z,27.71
2023-05-02T07:51:14.043Z,27.74
2023-05-02T07:52:14.031Z,27.75
2023-05-02T07:53:14.072Z,27.72
2023-05-02T07:54:14.060Z,27.75
2023-05-02T07:55:14.037Z,27.80
2023-05-02T07:56:14.038Z,27.78
2023-05-02T07:57:14.055Z,27.77
2023-05-02T07:58:14.072Z,27.80
2023-05-02T07:59:14.054Z,27.81
2023-05-02T08:00:14.080Z,27.83
2023-05-02T08:01:14.068Z,27.85
2023-05-02T08:02:14.321Z,27.88
2023-05-02T08:03:14.112Z,27.88
2023-05-02T08:04:14.676Z,27.91
2023-05-02T08:05:14.132Z,27.94
2023-05-02T08:06:14.166Z,27.94
2023-05-02T08:07:14.641Z,27.99
2023-05-02T08:08:14.177Z,27.99
2023-05-02T08:09:14.274Z,27.99
2023-05-02T08:10:14.333Z,28.02
2023-05-02T08:11:14.398Z,28.06
2023-05-02T08:12:14.489Z,28.05
2023-05-02T08:13:14.514Z,28.09
2023-05-02T08:14:14.575Z,28.09
2023-05-02T08:15:14.650Z,28.15
2023-05-02T08:16:14.774Z,28.15
2023-05-02T08:17:14.811Z,28.15
2023-05-02T08:18:14.964Z,28.18
2023-05-02T08:19:14.936Z,28.16
2023-05-02T08:20:14.950Z,28.18
2023-05-02T08:21:14.965Z,28.20
2023-05-02T08:22:15.442Z,28.20
2023-05-02T08:23:15.465Z,28.25
2023-05-02T08:24:15.201Z,28.23
2023-05-02T08:25:15.191Z,28.26
2023-05-02T08:26:15.266Z,28.23
2023-05-02T08:27:15.318Z,28.23
2023-05-02T08:28:15.338Z,28.27
2023-05-02T08:29:15.941Z,28.30
2023-05-02T08:30:15.723Z,28.29
2023-05-02T08:31:15.566Z,28.26
2023-05-02T08:32:15.727Z,28.23
2023-05-02T08:33:15.761Z,28.23
2023-05-02T08:34:15.663Z,28.19
2023-05-02T08:35:15.679Z,28.18
2023-05-02T08:36:15.717Z,28.09
2023-05-02T08:37:15.691Z,28.05
2023-05-02T08:38:15.692Z,28.02
2023-05-02T08:39:15.720Z,27.98
2023-05-02T08:40:16.033Z,27.97
2023-05-02T08:41:20.135Z,27.94
2023-05-02T08:42:15.689Z,27.91
2023-05-02T08:43:15.981Z,27.95
2023-05-02T08:44:15.692Z,27.95
2023-05-02T08:45:16.662Z,27.94
2023-05-02T08:46:16.569Z,27.94
2023-05-02T08:47:15.733Z,27.98
2023-05-02T08:48:15.727Z,28.04
2023-05-02T08:49:15.627Z,28.05
2023-05-02T08:50:15.668Z,28.08
2023-05-02T08:51:15.633Z,28.11
2023-05-02T08:52:15.600Z,28.15
2023-05-02T08:53:15.646Z,28.19
2023-05-02T08:54:15.671Z,28.20
2023-05-02T08:55:15.608Z,28.23
2023-05-02T08:56:15.607Z,28.27
2023-05-02T08:57:15.623Z,28.32
2023-05-02T08:58:17.595Z,28.35
2023-05-02T08:59:15.602Z,28.39
2023-05-02T09:00:15.558Z,28.44
2023-05-02T09:01:15.863Z,28.44
2023-05-02T09:02:15.599Z,28.50
2023-05-02T09:03:15.603Z,28.53
2023-05-02T09:04:15.983Z,28.54
2023-05-02T09:05:15.738Z,28.57
2023-05-02T09:06:15.762Z,28.57
2023-05-02T09:07:15.782Z,28.61
2023-05-02T09:08:15.806Z,28.61
2023-05-02T09:09:18.457Z,28.61
2023-05-02T09:10:15.878Z,28.61
2023-05-02T09:11:15.822Z,28.67
2023-05-02T09:12:15.879Z,28.69
2023-05-02T09:13:15.933Z,28.70
2023-05-02T09:14:15.835Z,28.70
2023-05-02T09:15:17.690Z,28.71
2023-05-02T09:16:15.857Z,28.74
2023-05-02T09:17:15.964Z,28.73
2023-05-02T09:18:15.790Z,28.74
2023-05-02T09:19:15.846Z,28.75
2023-05-02T09:20:16.074Z,28.78
2023-05-02T09:21:18.070Z,28.77
2023-05-02T09:22:15.785Z,28.80
2023-05-02T09:23:15.758Z,28.80
2023-05-02T09:24:15.764Z,28.82
2023-05-02T09:25:15.761Z,28.84
2023-05-02T09:26:15.742Z,28.86
2023-05-02T09:27:15.790Z,28.86
2023-05-02T09:28:15.955Z,28.87
2023-05-02T09:29:15.725Z,28.93
2023-05-02T09:30:15.945Z,28.87
2023-05-02T09:31:22.951Z,28.88
2023-05-02T09:32:17.048Z,28.87
2023-05-02T09:33:17.510Z,28.78
2023-05-02T09:34:15.943Z,28.63
2023-05-02T09:35:15.781Z,28.59
2023-05-02T09:36:15.853Z,28.50
2023-05-02T09:37:15.884Z,28.47
2023-05-02T09:38:15.963Z,28.42
2023-05-02T09:39:16.042Z,28.38
2023-05-02T09:40:16.443Z,28.40
2023-05-02T09:41:16.126Z,28.39
2023-05-02T09:42:16.191Z,28.39
2023-05-02T09:43:16.217Z,28.43
2023-05-02T09:44:16.298Z,28.43
2023-05-02T09:45:16.309Z,28.44
2023-05-02T09:46:16.435Z,28.44
2023-05-02T09:47:16.430Z,28.44
2023-05-02T09:48:16.945Z,28.49
2023-05-02T09:49:16.814Z,28.52
2023-05-02T09:50:16.563Z,28.50
2023-05-02T09:51:16.561Z,28.53
2023-05-02T09:52:16.583Z,28.57
2023-05-02T09:53:16.600Z,28.60
2023-05-02T09:54:16.880Z,28.64
2023-05-02T09:55:16.647Z,28.70
2023-05-02T09:56:16.636Z,28.70
2023-05-02T09:57:16.661Z,28.75
2023-05-02T09:58:16.671Z,28.77
2023-05-02T09:59:16.652Z,28.81
2023-05-02T10:00:16.694Z,28.84
2023-05-02T10:01:16.769Z,28.91
2023-05-02T10:02:16.676Z,28.94
2023-05-02T10:03:16.738Z,28.95
2023-05-02T10:04:16.770Z,28.97
2023-05-02T10:05:16.714Z,28.94
2023-05-02T10:06:16.726Z,28.95
2023-05-02T10:07:16.718Z,28.99
2023-05-02T10:08:16.932Z,28.97
2023-05-02T10:09:20.492Z,28.98
2023-05-02T10:10:16.696Z,28.94
2023-05-02T10:11:16.681Z,29.01
2023-05-02T10:12:16.903Z,29.04
2023-05-02T10:13:16.700Z,29.01
2023-05-02T10:14:16.692Z,29.05
2023-05-02T10:15:16.670Z,29.07
2023-05-02T10:16:16.718Z,29.07
2023-05-02T10:17:16.664Z,29.12
2023-05-02T10:18:16.701Z,29.08
2023-05-02T10:19:16.656Z,29.14
2023-05-02T10:20:16.744Z,29.11
2023-05-02T10:21:16.653Z,29.17
2023-05-02T10:22:16.685Z,29.12
2023-05-02T10:23:16.694Z,29.14
2023-05-02T10:24:16.730Z,29.11
2023-05-02T10:25:16.760Z,29.12
2023-05-02T10:26:16.857Z,29.14
2023-05-02T10:27:16.977Z,29.09
2023-05-02T10:28:16.935Z,29.14
2023-05-02T10:29:16.985Z,29.18
2023-05-02T10:30:17.062Z,29.21
2023-05-02T10:31:17.134Z,29.24
2023-05-02T10:32:17.157Z,29.18
2023-05-02T10:33:17.171Z,29.19
2023-05-02T10:34:17.158Z,29.21
2023-05-02T10:35:17.215Z,29.24
2023-05-02T10:36:17.239Z,29.22
2023-05-02T10:37:17.226Z,29.24
2023-05-02T10:38:17.257Z,29.26
2023-05-02T10:39:17.317Z,29.26
2023-05-02T10:40:17.371Z,29.28
2023-05-02T10:41:17.458Z,29.29
2023-05-02T10:42:17.525Z,29.33
2023-05-02T10:43:17.584Z,29.30
2023-05-02T10:44:17.638Z,29.35
2023-05-02T10:45:17.687Z,29.36
2023-05-02T10:46:17.759Z,29.33
2023-05-02T10:47:17.805Z,29.33
2023-05-02T10:48:17.808Z,29.32
2023-05-02T10:49:17.909Z,29.29
2023-05-02T10:50:17.989Z,29.28
2023-05-02T10:51:17.993Z,29.28
2023-05-02T10:52:18.073Z,29.28
2023-05-02T10:53:18.130Z,29.28
2023-05-02T10:54:18.199Z,29.30
2023-05-02T10:55:18.226Z,29.26
2023-05-02T10:56:18.284Z,29.25
2023-05-02T10:57:18.332Z,29.28
2023-05-02T10:58:18.447Z,29.32
2023-05-02T10:59:18.443Z,29.29
2023-05-02T11:00:18.513Z,29.30
2023-05-02T11:01:18.619Z,29.30
2023-05-02T11:02:18.656Z,29.33
2023-05-02T11:03:18.676Z,29.33
2023-05-02T11:04:18.696Z,29.32
2023-05-02T11:05:18.771Z,29.33
2023-05-02T11:06:18.847Z,29.36
2023-05-02T11:07:18.882Z,29.30
2023-05-02T11:08:21.220Z,29.28
2023-05-02T11:09:18.935Z,29.29
2023-05-02T11:10:18.905Z,29.29
2023-05-02T11:11:18.895Z,29.29
2023-05-02T11:12:19.082Z,29.35
2023-05-02T11:13:18.984Z,29.37
2023-05-02T11:14:19.828Z,29.36
2023-05-02T11:15:18.880Z,29.33
2023-05-02T11:16:18.906Z,29.33
2023-05-02T11:17:18.833Z,29.35
2023-05-02T11:18:18.850Z,29.26
2023-05-02T11:19:18.817Z,29.28
2023-05-02T11:20:18.842Z,29.32
2023-05-02T11:21:19.026Z,29.24
2023-05-02T11:22:18.826Z,29.32
2023-05-02T11:23:18.981Z,29.33
2023-05-02T11:24:18.839Z,29.37
2023-05-02T11:25:18.956Z,29.37
2023-05-02T11:26:18.838Z,29.37
2023-05-02T11:27:18.773Z,29.37
2023-05-02T11:28:18.797Z,29.35
2023-05-02T11:29:18.765Z,29.37
2023-05-02T11:30:18.773Z,29.36
2023-05-02T11:31:18.798Z,29.35
2023-05-02T11:32:18.938Z,29.33
2023-05-02T11:33:18.974Z,29.35
2023-05-02T11:34:18.962Z,29.32
2023-05-02T11:35:19.031Z,29.30
2023-05-02T11:36:19.009Z,29.29
2023-05-02T11:37:19.019Z,29.26
2023-05-02T11:38:19.019Z,29.25
2023-05-02T11:39:19.039Z,29.25
2023-05-02T11:40:19.097Z,29.22
2023-05-02T11:41:19.035Z,29.25
2023-05-02T11:42:19.155Z,29.21
2023-05-02T11:43:19.084Z,29.21
2023-05-02T11:44:19.072Z,29.18
2023-05-02T11:45:19.140Z,29.19
2023-05-02T11:46:19.147Z,29.17
2023-05-02T11:47:19.156Z,29.18
2023-05-02T11:48:19.117Z,29.17
2023-05-02T11:49:19.157Z,29.15
2023-05-02T11:50:19.188Z,29.15
2023-05-02T11:51:19.237Z,29.15
2023-05-02T11:52:19.173Z,29.15
2023-05-02T11:53:19.211Z,29.15
2023-05-02T11:54:19.203Z,29.14
2023-05-02T11:55:19.204Z,29.15
2023-05-02T11:56:19.205Z,29.12
2023-05-02T11:57:19.225Z,29.08
2023-05-02T11:58:19.234Z,29.07
2023-05-02T11:59:19.286Z,29.09
2023-05-02T12:00:19.267Z,29.09
2023-05-02T12:01:19.251Z,29.09
2023-05-02T12:02:19.332Z,29.07
2023-05-02T12:03:19.361Z,29.08
2023-05-02T12:04:19.289Z,29.08
2023-05-02T12:05:19.309Z,29.07
2023-05-02T12:06:20.052Z,29.07
2023-05-02T12:07:19.288Z,29.08
2023-05-02T12:08:19.304Z,29.08
2023-05-02T12:09:19.347Z,29.11
2023-05-02T12:10:19.304Z,29.09
2023-05-02T12:11:19.291Z,29.11
2023-05-02T12:12:19.262Z,29.12
2023-05-02T12:13:19.258Z,29.11
2023-05-02T12:14:19.270Z,29.12
2023-05-02T12:15:19.283Z,29.12
2023-05-02T12:16:19.506Z,29.11
2023-05-02T12:17:19.256Z,29.12
2023-05-02T12:18:21.961Z,29.14
2023-05-02T12:19:19.280Z,29.14
2023-05-02T12:20:19.257Z,29.14
2023-05-02T12:21:19.223Z,29.14
2023-05-02T12:22:19.230Z,29.12
2023-05-02T12:23:19.266Z,29.14
2023-05-02T12:24:19.240Z,29.12
2023-05-02T12:25:19.241Z,29.11
2023-05-02T12:26:19.297Z,29.14
2023-05-02T12:27:19.274Z,29.11
2023-05-02T12:28:19.213Z,29.14
2023-05-02T12:29:19.153Z,29.14
2023-05-02T12:30:19.227Z,29.14
2023-05-02T12:31:19.256Z,29.14
2023-05-02T12:32:19.178Z,29.14
2023-05-02T12:33:19.210Z,29.12
2023-05-02T12:34:19.228Z,29.12
2023-05-02T12:35:19.170Z,29.12
2023-05-02T12:36:19.306Z,29.12
2023-05-02T12:37:19.122Z,29.11
2023-05-02T12:38:19.117Z,29.12
2023-05-02T12:39:19.133Z,29.12
2023-05-02T12:40:19.099Z,29.11
2023-05-02T12:41:19.136Z,29.11
2023-05-02T12:42:19.130Z,29.11
2023-05-02T12:43:19.104Z,29.09
2023-05-02T12:44:19.156Z,29.09
2023-05-02T12:45:19.154Z,29.12
2023-05-02T12:46:19.098Z,29.11
2023-05-02T12:47:19.214Z,29.09
2023-05-02T12:48:19.038Z,29.08
2023-05-02T12:49:19.077Z,29.09
2023-05-02T12:50:19.160Z,29.11
2023-05-02T12:51:19.067Z,29.09
2023-05-02T12:52:19.010Z,29.09